createdAt,value
2016-11-07T00:00:50.271Z,0
2016-11-07T00:02:05.209Z,0
2016-11-07T00:02:50.306Z,0
2016-11-07T00:04:50.344Z,0
2016-11-07T00:06:05.585Z,0
2016-11-07T00:06:50.380Z,0
2016-11-07T00:07:50.402Z,0
2016-11-07T00:08:50.425Z,0
2016-11-07T00:09:50.447Z,0
2016-11-07T00:10:50.460Z,0
2016-11-07T00:11:50.478Z,0
2016-11-07T00:12:50.500Z,0
2016-11-07T00:13:50.513Z,0
2016-11-07T00:14:50.545Z,0
2016-11-07T00:16:05.475Z,0
2016-11-07T00:17:05.500Z,0
2016-11-07T00:17:50.591Z,0
2016-11-07T00:18:50.607Z,0
2016-11-07T00:19:50.630Z,0
2016-11-07T00:21:05.571Z,0
2016-11-07T00:22:50.979Z,0
2016-11-07T00:23:50.732Z,0
2016-11-07T00:24:50.726Z,0
2016-11-07T00:25:50.741Z,0
2016-11-07T00:26:50.763Z,0
2016-11-07T00:28:05.708Z,0
2016-11-07T00:28:50.794Z,0
2016-11-07T00:29:50.811Z,0
2016-11-07T00:30:50.826Z,0
2016-11-07T00:31:50.855Z,0
2016-11-07T00:32:50.905Z,0
2016-11-07T00:36:50.946Z,0
2016-11-07T00:37:50.967Z,0
2016-11-07T00:38:50.981Z,0
2016-11-07T00:39:51.007Z,0
2016-11-07T00:40:51.021Z,0
2016-11-07T00:41:51.041Z,0
2016-11-07T00:43:51.079Z,0
2016-11-07T00:44:51.100Z,0
2016-11-07T00:45:51.123Z,0
2016-11-07T00:46:51.168Z,0
2016-11-07T00:47:51.162Z,0
2016-11-07T00:48:51.170Z,0
2016-11-07T00:49:51.189Z,0
2016-11-07T00:50:51.212Z,0
2016-11-07T00:51:51.225Z,0
2016-11-07T00:54:51.292Z,0
2016-11-07T00:55:51.618Z,0
2016-11-07T00:56:51.325Z,0
2016-11-07T00:57:51.348Z,0
2016-11-07T00:58:51.670Z,0
2016-11-07T00:59:51.384Z,0
2016-11-07T01:00:51.432Z,0
2016-11-07T01:01:51.430Z,0
2016-11-07T01:02:51.441Z,0
2016-11-07T01:03:51.455Z,0
2016-11-07T01:04:51.467Z,0
2016-11-07T01:06:06.413Z,0
2016-11-07T01:07:06.431Z,0
2016-11-07T01:07:51.563Z,0
2016-11-07T01:09:06.773Z,0
2016-11-07T01:09:51.560Z,0
2016-11-07T01:10:51.584Z,0
2016-11-07T01:11:51.607Z,0
2016-11-07T01:12:51.632Z,0
2016-11-07T01:13:51.643Z,0
2016-11-07T01:14:51.654Z,0
2016-11-07T01:15:51.681Z,0
2016-11-07T01:16:51.704Z,0
2016-11-07T01:17:51.710Z,0
2016-11-07T01:18:51.731Z,0
2016-11-07T01:19:51.758Z,0
2016-11-07T01:21:51.798Z,0
2016-11-07T01:22:51.808Z,0
2016-11-07T01:24:06.755Z,0
2016-11-07T01:25:06.769Z,0
2016-11-07T01:26:06.787Z,0
2016-11-07T01:26:51.884Z,0
2016-11-07T01:27:51.899Z,0
2016-11-07T01:28:51.924Z,0
2016-11-07T01:29:51.935Z,0
2016-11-07T01:30:51.956Z,0
2016-11-07T01:31:51.979Z,0
2016-11-07T01:32:52.039Z,0
2016-11-07T01:33:52.012Z,0
2016-11-07T01:34:52.035Z,0
2016-11-07T01:35:52.054Z,0
2016-11-07T01:36:52.075Z,0
2016-11-07T01:38:07.015Z,0
2016-11-07T01:38:52.112Z,0
2016-11-07T01:39:52.186Z,0
2016-11-07T01:41:07.066Z,0
2016-11-07T01:41:52.169Z,0
2016-11-07T01:42:52.179Z,0
2016-11-07T01:43:52.199Z,0
2016-11-07T01:44:52.218Z,0
2016-11-07T01:45:52.273Z,0
2016-11-07T01:46:52.257Z,0
2016-11-07T01:47:52.302Z,0
2016-11-07T01:48:52.301Z,0
2016-11-07T01:49:52.308Z,0
2016-11-07T01:50:52.329Z,0
2016-11-07T01:51:52.351Z,0
2016-11-07T01:53:07.295Z,0
2016-11-07T01:53:52.391Z,0
2016-11-07T01:56:07.345Z,0
2016-11-07T01:57:07.393Z,0
2016-11-07T01:58:52.516Z,0
2016-11-07T01:59:52.495Z,0
2016-11-07T02:00:52.519Z,0
2016-11-07T02:01:52.536Z,0
2016-11-07T02:02:52.555Z,0
2016-11-07T02:03:52.570Z,0
2016-11-07T02:04:52.590Z,0
2016-11-07T02:05:52.607Z,0
2016-11-07T02:06:52.659Z,0
2016-11-07T02:07:52.653Z,0
2016-11-07T02:09:52.696Z,0
2016-11-07T02:10:52.706Z,0
2016-11-07T02:11:52.724Z,0
2016-11-07T02:12:52.739Z,0
2016-11-07T02:13:52.765Z,0
2016-11-07T02:14:52.785Z,0
2016-11-07T02:15:52.795Z,0
2016-11-07T02:16:52.821Z,0
2016-11-07T02:17:52.835Z,0
2016-11-07T02:18:52.885Z,0
2016-11-07T02:19:52.874Z,0
2016-11-07T02:20:52.894Z,0
2016-11-07T02:21:52.918Z,0
2016-11-07T02:23:52.950Z,0
2016-11-07T02:25:52.996Z,0
2016-11-07T02:28:07.937Z,0
2016-11-07T02:28:53.045Z,0
2016-11-07T02:29:53.062Z,0
2016-11-07T02:31:53.103Z,0
2016-11-07T02:32:53.123Z,0
2016-11-07T02:33:53.139Z,0
2016-11-07T02:34:53.187Z,0
2016-11-07T02:36:53.197Z,0
2016-11-07T02:38:08.132Z,0
2016-11-07T02:38:53.230Z,0
2016-11-07T02:39:53.245Z,0
2016-11-07T02:41:08.185Z,0
2016-11-07T02:41:53.290Z,0
2016-11-07T02:42:53.292Z,0
2016-11-07T02:44:08.275Z,0
2016-11-07T02:44:53.332Z,0
2016-11-07T02:45:53.354Z,0
2016-11-07T02:46:53.383Z,0
2016-11-07T02:47:53.389Z,0
2016-11-07T02:48:53.413Z,0
2016-11-07T02:49:53.471Z,0
2016-11-07T02:50:53.452Z,0
2016-11-07T02:51:53.470Z,0
2016-11-07T02:52:53.482Z,0
2016-11-07T02:54:08.427Z,0
2016-11-07T02:54:53.520Z,0
2016-11-07T02:55:53.547Z,0
2016-11-07T02:56:53.560Z,0
2016-11-07T02:57:53.578Z,0
2016-11-07T02:58:53.617Z,0
2016-11-07T03:00:08.539Z,0
2016-11-07T03:00:53.630Z,0
2016-11-07T03:01:53.659Z,0
2016-11-07T03:02:53.674Z,0
2016-11-07T03:03:53.697Z,0
2016-11-07T03:04:53.744Z,0
2016-11-07T03:06:53.756Z,0
2016-11-07T03:07:53.767Z,0
2016-11-07T03:08:53.786Z,0
2016-11-07T03:09:53.802Z,0
2016-11-07T03:10:53.828Z,0
2016-11-07T03:12:08.760Z,0
2016-11-07T03:12:53.858Z,0
2016-11-07T03:13:53.878Z,0
2016-11-07T03:14:53.893Z,0
2016-11-07T03:16:53.938Z,0
2016-11-07T03:17:53.950Z,0
2016-11-07T03:18:53.977Z,0
2016-11-07T03:19:53.981Z,0
2016-11-07T03:20:54.010Z,0
2016-11-07T03:21:54.028Z,0
2016-11-07T03:22:54.045Z,0
2016-11-07T03:23:54.060Z,0
2016-11-07T03:24:54.085Z,0
2016-11-07T03:25:54.105Z,0
2016-11-07T03:27:54.134Z,0
2016-11-07T03:28:54.163Z,0
2016-11-07T03:29:54.183Z,0
2016-11-07T03:31:09.116Z,0
2016-11-07T03:34:54.271Z,0
2016-11-07T03:35:54.288Z,0
2016-11-07T03:36:54.340Z,0
2016-11-07T03:37:54.323Z,0
2016-11-07T03:38:54.343Z,0
2016-11-07T03:39:54.360Z,0
2016-11-07T03:41:09.303Z,0
2016-11-07T03:42:09.320Z,0
2016-11-07T03:42:54.411Z,0
2016-11-07T03:43:54.434Z,0
2016-11-07T03:44:54.446Z,0
2016-11-07T03:45:54.465Z,0
2016-11-07T03:46:54.487Z,0
2016-11-07T03:47:54.513Z,0
2016-11-07T03:48:54.518Z,0
2016-11-07T03:49:54.543Z,0
2016-11-07T03:50:54.874Z,0
2016-11-07T03:51:54.581Z,0
2016-11-07T03:52:54.645Z,0
2016-11-07T03:53:54.620Z,0
2016-11-07T03:54:54.637Z,0
2016-11-07T03:55:54.661Z,0
2016-11-07T03:56:54.673Z,0
2016-11-07T03:57:54.694Z,0
2016-11-07T03:58:54.732Z,0
2016-11-07T03:59:54.761Z,0
2016-11-07T04:01:09.668Z,0
2016-11-07T04:01:54.765Z,0
2016-11-07T04:03:09.701Z,0
2016-11-07T04:03:54.803Z,0
2016-11-07T04:04:54.818Z,0
2016-11-07T04:05:54.840Z,0
2016-11-07T04:06:54.892Z,0
2016-11-07T04:07:54.886Z,0
2016-11-07T04:08:54.891Z,0
2016-11-07T04:10:09.841Z,0
2016-11-07T04:10:54.930Z,0
2016-11-07T04:11:54.950Z,0
2016-11-07T04:12:54.963Z,0
2016-11-07T04:13:54.982Z,0
2016-11-07T04:15:09.927Z,0
2016-11-07T04:15:55.025Z,0
2016-11-07T04:16:55.036Z,0
2016-11-07T04:17:55.064Z,0
2016-11-07T04:19:09.997Z,0
2016-11-07T04:19:55.097Z,0
2016-11-07T04:20:55.113Z,0
2016-11-07T04:21:55.129Z,0
2016-11-07T04:22:55.148Z,0
2016-11-07T04:23:55.197Z,0
2016-11-07T04:24:55.189Z,0
2016-11-07T04:25:55.200Z,0
2016-11-07T04:26:55.234Z,0
2016-11-07T04:27:55.240Z,0
2016-11-07T04:28:55.262Z,0
2016-11-07T04:29:55.283Z,0
2016-11-07T04:31:10.216Z,0
2016-11-07T04:31:55.315Z,0
2016-11-07T04:32:55.332Z,0
2016-11-07T04:33:55.349Z,0
2016-11-07T04:35:10.291Z,0
2016-11-07T04:35:55.426Z,0
2016-11-07T04:36:55.405Z,0
2016-11-07T04:37:55.428Z,0
2016-11-07T04:38:55.482Z,0
2016-11-07T04:39:55.459Z,0
2016-11-07T04:40:55.481Z,0
2016-11-07T04:41:55.496Z,0
2016-11-07T04:42:55.558Z,0
2016-11-07T04:43:55.536Z,0
2016-11-07T04:44:55.557Z,0
2016-11-07T04:45:55.568Z,0
2016-11-07T04:46:55.589Z,0
2016-11-07T04:47:55.604Z,0
2016-11-07T04:48:55.627Z,0
2016-11-07T04:49:55.646Z,0
2016-11-07T04:51:10.582Z,0
2016-11-07T04:51:55.678Z,0
2016-11-07T04:52:55.693Z,0
2016-11-07T04:55:55.751Z,0
2016-11-07T04:56:55.770Z,0
2016-11-07T04:57:55.788Z,0
2016-11-07T04:58:55.812Z,0
2016-11-07T04:59:55.827Z,0
2016-11-07T05:00:55.842Z,0
2016-11-07T05:01:55.868Z,0
2016-11-07T05:03:10.809Z,0
2016-11-07T05:03:55.894Z,0
2016-11-07T05:04:55.927Z,0
2016-11-07T05:06:55.956Z,0
2016-11-07T05:07:56.007Z,0
2016-11-07T05:08:56.032Z,0
2016-11-07T05:09:56.017Z,0
2016-11-07T05:11:10.962Z,0
2016-11-07T05:11:56.085Z,0
2016-11-07T05:12:56.065Z,0
2016-11-07T05:14:56.111Z,0
2016-11-07T05:15:56.121Z,0
2016-11-07T05:17:11.067Z,0
2016-11-07T05:17:56.161Z,0
2016-11-07T05:19:56.198Z,0
2016-11-07T05:20:56.217Z,0
2016-11-07T05:22:56.253Z,0
2016-11-07T05:23:56.266Z,0
2016-11-07T05:24:56.289Z,0
2016-11-07T05:25:56.302Z,0
2016-11-07T05:26:56.326Z,0
2016-11-07T05:27:56.395Z,0
2016-11-07T05:28:56.380Z,0
2016-11-07T05:29:56.387Z,0
2016-11-07T05:30:56.405Z,0
2016-11-07T05:31:56.426Z,0
2016-11-07T05:33:11.364Z,0
2016-11-07T05:33:56.458Z,0
2016-11-07T05:35:56.493Z,0
2016-11-07T05:36:56.517Z,0
2016-11-07T05:38:11.451Z,0
2016-11-07T05:38:56.542Z,0
2016-11-07T05:39:56.566Z,0
2016-11-07T05:40:56.584Z,0
2016-11-07T05:41:56.605Z,0
2016-11-07T05:42:56.633Z,0
2016-11-07T05:43:56.644Z,0
2016-11-07T05:44:56.663Z,0
2016-11-07T05:45:56.675Z,0
2016-11-07T05:46:56.690Z,0
2016-11-07T05:47:56.718Z,0
2016-11-07T05:48:56.726Z,0
2016-11-07T05:50:11.674Z,4
2016-11-07T05:50:56.796Z,4
2016-11-07T05:51:56.784Z,0
2016-11-07T05:53:11.722Z,4
2016-11-07T05:54:11.742Z,4
2016-11-07T05:54:56.845Z,4
2016-11-07T05:55:56.858Z,8
2016-11-07T05:57:56.899Z,8
2016-11-07T05:58:56.920Z,12
2016-11-07T05:59:56.934Z,12
2016-11-07T06:00:56.953Z,16
2016-11-07T06:01:56.976Z,12
2016-11-07T06:02:56.991Z,16
2016-11-07T06:03:57.003Z,16
2016-11-07T06:04:57.026Z,20
2016-11-07T06:06:11.965Z,20
2016-11-07T06:06:57.060Z,28
2016-11-07T06:07:57.080Z,28
2016-11-07T06:09:12.018Z,32
2016-11-07T06:10:57.146Z,28
2016-11-07T06:11:57.151Z,36
2016-11-07T06:12:57.170Z,40
2016-11-07T06:13:57.200Z,48
2016-11-07T06:15:57.225Z,48
2016-11-07T06:17:12.173Z,56
2016-11-07T06:18:57.285Z,64
2016-11-07T06:19:57.308Z,72
2016-11-07T06:20:57.325Z,76
2016-11-07T06:21:57.350Z,84
2016-11-07T06:22:57.353Z,88
2016-11-07T06:23:57.379Z,96
2016-11-07T06:24:57.397Z,96
2016-11-07T06:26:12.340Z,100
2016-11-07T06:26:57.435Z,104
2016-11-07T06:27:57.455Z,108
2016-11-07T06:28:57.472Z,116
2016-11-07T06:29:57.484Z,120
2016-11-07T06:30:57.509Z,128
2016-11-07T06:31:57.527Z,132
2016-11-07T06:32:57.582Z,140
2016-11-07T06:33:57.557Z,148
2016-11-07T06:34:57.572Z,160
2016-11-07T06:35:57.598Z,172
2016-11-07T06:37:12.541Z,184
2016-11-07T06:37:57.634Z,192
2016-11-07T06:38:57.655Z,196
2016-11-07T06:39:57.665Z,204
2016-11-07T06:41:12.610Z,220
2016-11-07T06:41:57.712Z,228
2016-11-07T06:42:57.727Z,244
2016-11-07T06:44:12.660Z,248
2016-11-07T06:44:57.767Z,248
2016-11-07T06:46:12.709Z,252
2016-11-07T06:46:57.804Z,260
2016-11-07T06:47:57.819Z,264
2016-11-07T06:48:57.839Z,276
2016-11-07T06:50:57.872Z,304
2016-11-07T06:51:57.891Z,312
2016-11-07T06:52:57.911Z,324
2016-11-07T06:53:57.923Z,336
2016-11-07T06:56:57.982Z,336
2016-11-07T06:57:58.006Z,340
2016-11-07T06:58:58.017Z,348
2016-11-07T06:59:58.043Z,352
2016-11-07T07:00:58.056Z,372
2016-11-07T07:01:58.075Z,396
2016-11-07T07:02:58.096Z,404
2016-11-07T07:03:58.150Z,412
2016-11-07T07:05:58.453Z,424
2016-11-07T07:07:13.092Z,452
2016-11-07T07:07:58.188Z,472
2016-11-07T07:08:58.201Z,516
2016-11-07T07:10:58.239Z,556
2016-11-07T07:12:13.182Z,560
2016-11-07T07:13:13.200Z,524
2016-11-07T07:13:58.328Z,472
2016-11-07T07:14:58.315Z,464
2016-11-07T07:15:58.342Z,448
2016-11-07T07:16:58.351Z,476
2016-11-07T07:17:58.368Z,568
2016-11-07T07:18:58.397Z,584
2016-11-07T07:20:13.335Z,600
2016-11-07T07:21:58.445Z,588
2016-11-07T07:23:58.482Z,640
2016-11-07T07:24:58.498Z,648
2016-11-07T07:26:13.438Z,608
2016-11-07T07:27:13.458Z,632
2016-11-07T07:27:58.599Z,632
2016-11-07T07:29:13.497Z,620
2016-11-07T07:29:58.588Z,624
2016-11-07T07:30:58.608Z,640
2016-11-07T07:32:58.645Z,660
2016-11-07T07:33:58.968Z,688
2016-11-07T07:35:13.614Z,732
2016-11-07T07:35:58.707Z,744
2016-11-07T07:36:58.723Z,820
2016-11-07T07:38:58.781Z,864
2016-11-07T07:39:58.774Z,912
2016-11-07T07:40:58.788Z,932
2016-11-07T07:41:58.813Z,960
2016-11-07T07:42:58.835Z,956
2016-11-07T07:43:58.852Z,916
2016-11-07T07:45:13.792Z,908
2016-11-07T07:46:13.810Z,924
2016-11-07T07:46:58.909Z,936
2016-11-07T07:47:58.935Z,960
2016-11-07T07:48:58.944Z,956
2016-11-07T07:50:58.979Z,996
2016-11-07T07:51:59.037Z,1000
2016-11-07T07:52:59.063Z,1040
2016-11-07T07:53:59.036Z,1116
2016-11-07T07:55:14.012Z,1148
2016-11-07T07:55:59.075Z,1140
2016-11-07T07:56:59.092Z,1216
2016-11-07T07:58:14.032Z,1424
2016-11-07T07:58:59.130Z,1472
2016-11-07T07:59:59.156Z,1612
2016-11-07T08:01:14.084Z,1700
2016-11-07T08:01:59.184Z,2016
2016-11-07T08:02:59.505Z,2136
2016-11-07T08:03:59.223Z,2064
2016-11-07T08:04:59.240Z,2120
2016-11-07T08:05:59.254Z,2144
2016-11-07T08:06:59.281Z,2220
2016-11-07T08:07:59.291Z,2268
2016-11-07T08:08:59.310Z,2524
2016-11-07T08:09:59.333Z,2532
2016-11-07T08:10:59.353Z,2720
2016-11-07T08:11:59.374Z,2484
2016-11-07T08:13:14.310Z,2424
2016-11-07T08:13:59.404Z,2372
2016-11-07T08:15:14.347Z,2444
2016-11-07T08:16:14.365Z,2868
2016-11-07T08:16:59.466Z,2980
2016-11-07T08:17:59.489Z,2872
2016-11-07T08:18:59.494Z,2920
2016-11-07T08:19:59.528Z,3140
2016-11-07T08:20:59.547Z,3280
2016-11-07T08:21:59.566Z,3360
2016-11-07T08:23:14.504Z,3264
2016-11-07T08:23:59.588Z,3100
2016-11-07T08:24:59.657Z,2960
2016-11-07T08:26:14.557Z,2984
2016-11-07T08:27:14.574Z,2920
2016-11-07T08:27:59.670Z,2756
2016-11-07T08:28:59.693Z,2588
2016-11-07T08:29:59.713Z,2392
2016-11-07T08:31:14.651Z,2328
2016-11-07T08:32:00.055Z,2360
2016-11-07T08:32:59.769Z,2316
2016-11-07T08:33:59.786Z,2364
2016-11-07T08:34:59.808Z,2260
2016-11-07T08:35:59.816Z,2248
2016-11-07T08:38:59.872Z,2648
2016-11-07T08:39:59.901Z,2568
2016-11-07T08:40:59.928Z,2596
2016-11-07T08:41:59.942Z,2552
2016-11-07T08:43:14.878Z,2284
2016-11-07T08:43:59.971Z,2144
2016-11-07T08:44:59.988Z,1876
2016-11-07T08:46:00.257Z,1812
2016-11-07T08:47:00.033Z,1768
2016-11-07T08:48:15.001Z,1732
2016-11-07T08:49:00.063Z,1680
2016-11-07T08:50:00.352Z,1692
2016-11-07T08:51:00.097Z,1672
2016-11-07T08:52:00.126Z,1764
2016-11-07T08:53:00.146Z,1980
2016-11-07T08:54:00.168Z,1956
2016-11-07T08:55:00.181Z,1996
2016-11-07T08:57:00.215Z,2632
2016-11-07T08:58:00.234Z,2624
2016-11-07T08:59:15.176Z,2588
2016-11-07T09:00:15.244Z,2524
2016-11-07T09:01:15.211Z,2268
2016-11-07T09:02:15.231Z,2228
2016-11-07T09:03:00.336Z,2396
2016-11-07T09:04:15.281Z,2964
2016-11-07T09:05:00.364Z,3244
2016-11-07T09:06:00.387Z,3216
2016-11-07T09:07:00.413Z,3352
2016-11-07T09:09:00.474Z,4300
2016-11-07T09:10:00.456Z,4616
2016-11-07T09:11:00.478Z,4592
2016-11-07T09:12:00.501Z,4892
2016-11-07T09:13:00.520Z,5824
2016-11-07T09:14:00.547Z,6028
2016-11-07T09:15:00.553Z,5800
2016-11-07T09:16:15.502Z,6204
2016-11-07T09:17:00.595Z,6252
2016-11-07T09:18:00.621Z,6024
2016-11-07T09:19:00.636Z,5776
2016-11-07T09:20:15.576Z,5832
2016-11-07T09:21:00.687Z,5824
2016-11-07T09:22:00.684Z,5364
2016-11-07T09:24:00.881Z,4636
2016-11-07T09:25:00.777Z,4352
2016-11-07T09:26:00.771Z,4148
2016-11-07T09:27:00.788Z,3852
2016-11-07T09:28:00.801Z,3452
2016-11-07T09:29:00.826Z,3152
2016-11-07T09:30:00.854Z,2948
2016-11-07T09:31:15.791Z,2928
2016-11-07T09:32:00.887Z,2792
2016-11-07T09:33:00.896Z,2616
2016-11-07T09:34:00.920Z,2616
2016-11-07T09:35:00.947Z,2672
2016-11-07T09:36:15.876Z,2632
2016-11-07T09:37:00.980Z,2416
2016-11-07T09:38:00.998Z,2276
2016-11-07T09:39:01.020Z,2452
2016-11-07T09:41:01.057Z,2212
2016-11-07T09:42:01.386Z,2344
2016-11-07T09:43:01.090Z,2664
2016-11-07T09:44:01.113Z,2868
2016-11-07T09:45:01.129Z,3096
2016-11-07T09:46:01.153Z,3328
2016-11-07T09:47:01.173Z,3228
2016-11-07T09:48:16.694Z,2812
2016-11-07T09:49:01.211Z,2584
2016-11-07T09:50:01.241Z,2540
2016-11-07T09:51:16.173Z,2660
2016-11-07T09:52:16.186Z,2744
2016-11-07T09:53:01.283Z,2800
2016-11-07T09:54:01.303Z,2844
2016-11-07T09:55:01.321Z,2772
2016-11-07T09:56:01.348Z,2632
2016-11-07T09:57:01.355Z,2508
2016-11-07T09:58:01.381Z,2612
2016-11-07T09:59:01.410Z,2968
2016-11-07T10:00:01.421Z,3144
2016-11-07T10:01:01.442Z,3240
2016-11-07T10:02:16.382Z,3200
2016-11-07T10:03:01.476Z,3276
2016-11-07T10:04:01.814Z,3560
2016-11-07T10:05:01.510Z,3776
2016-11-07T10:06:01.540Z,4012
2016-11-07T10:07:16.473Z,4460
2016-11-07T10:08:01.575Z,4764
2016-11-07T10:09:01.592Z,5176
2016-11-07T10:10:01.604Z,5268
2016-11-07T10:11:01.636Z,5208
2016-11-07T10:12:01.656Z,4824
2016-11-07T10:13:01.670Z,4300
2016-11-07T10:14:01.692Z,3968
2016-11-07T10:15:01.705Z,3660
2016-11-07T10:16:01.721Z,3216
2016-11-07T10:17:01.747Z,2860
2016-11-07T10:18:01.809Z,2832
2016-11-07T10:19:16.711Z,3096
2016-11-07T10:20:16.728Z,3232
2016-11-07T10:21:16.748Z,3268
2016-11-07T10:22:01.840Z,3396
2016-11-07T10:23:16.785Z,3544
2016-11-07T10:24:01.883Z,3408
2016-11-07T10:25:01.929Z,3188
2016-11-07T10:26:01.917Z,3028
2016-11-07T10:27:01.934Z,3040
2016-11-07T10:28:01.963Z,2992
2016-11-07T10:29:01.987Z,2832
2016-11-07T10:30:02.096Z,2688
2016-11-07T10:31:02.021Z,2576
2016-11-07T10:32:02.073Z,2432
2016-11-07T10:33:02.060Z,2100
2016-11-07T10:34:02.076Z,1752
2016-11-07T10:35:02.108Z,1560
2016-11-07T10:36:02.119Z,1532
2016-11-07T10:37:02.136Z,1704
2016-11-07T10:38:02.162Z,1856
2016-11-07T10:39:17.099Z,1980
2016-11-07T10:40:02.199Z,2024
2016-11-07T10:41:02.214Z,2100
2016-11-07T10:42:02.246Z,2172
2016-11-07T10:43:02.260Z,2232
2016-11-07T10:44:02.278Z,2296
2016-11-07T10:45:02.294Z,2404
2016-11-07T10:46:02.307Z,2536
2016-11-07T10:47:02.328Z,2656
2016-11-07T10:48:02.382Z,2788
2016-11-07T10:49:02.379Z,2964
2016-11-07T10:50:02.422Z,3204
2016-11-07T10:51:17.330Z,3548
2016-11-07T10:52:02.432Z,3744
2016-11-07T10:53:02.458Z,3956
2016-11-07T10:54:17.385Z,4128
2016-11-07T10:55:17.408Z,4300
2016-11-07T10:56:17.424Z,4340
2016-11-07T10:57:02.551Z,4220
2016-11-07T10:58:02.842Z,3960
2016-11-07T10:59:02.561Z,4076
2016-11-07T11:00:02.578Z,4232
2016-11-07T11:01:02.639Z,4308
2016-11-07T11:02:02.618Z,4416
2016-11-07T11:03:02.677Z,4332
2016-11-07T11:04:02.664Z,4304
2016-11-07T11:05:02.681Z,4300
2016-11-07T11:06:17.618Z,4176
2016-11-07T11:07:03.136Z,4104
2016-11-07T11:08:02.730Z,4204
2016-11-07T11:09:02.744Z,4180
2016-11-07T11:10:02.769Z,4196
2016-11-07T11:11:17.716Z,4536
2016-11-07T11:12:02.814Z,4676
2016-11-07T11:13:02.824Z,4888
2016-11-07T11:14:02.850Z,5048
2016-11-07T11:15:02.872Z,5212
2016-11-07T11:16:02.889Z,5368
2016-11-07T11:17:02.906Z,5368
2016-11-07T11:18:02.924Z,5412
2016-11-07T11:19:17.871Z,5264
2016-11-07T11:20:02.968Z,5368
2016-11-07T11:21:03.020Z,5544
2016-11-07T11:22:02.999Z,5556
2016-11-07T11:23:03.032Z,5456
2016-11-07T11:24:03.037Z,5068
2016-11-07T11:25:03.066Z,4620
2016-11-07T11:26:18.004Z,4100
2016-11-07T11:27:03.110Z,3892
2016-11-07T11:28:03.121Z,3584
2016-11-07T11:30:03.155Z,3424
2016-11-07T11:31:03.178Z,3648
2016-11-07T11:32:03.201Z,3872
2016-11-07T11:33:03.232Z,4032
2016-11-07T11:34:03.244Z,4208
2016-11-07T11:35:03.256Z,4328
2016-11-07T11:36:03.286Z,4432
2016-11-07T11:37:03.292Z,4676
2016-11-07T11:38:04.313Z,4860
2016-11-07T11:39:18.255Z,4920
2016-11-07T11:40:03.347Z,4904
2016-11-07T11:41:03.374Z,4868
2016-11-07T11:42:03.394Z,4816
2016-11-07T11:43:03.417Z,4756
2016-11-07T11:44:03.431Z,4560
2016-11-07T11:45:03.456Z,4316
2016-11-07T11:46:03.474Z,4224
2016-11-07T11:47:03.496Z,4068
2016-11-07T11:48:03.810Z,3880
2016-11-07T11:49:18.465Z,3568
2016-11-07T11:50:03.553Z,3544
2016-11-07T11:51:03.599Z,3588
2016-11-07T11:52:03.584Z,3888
2016-11-07T11:53:03.607Z,4176
2016-11-07T11:54:03.624Z,4372
2016-11-07T11:55:03.646Z,4560
2016-11-07T11:56:03.690Z,4732
2016-11-07T11:57:03.684Z,4868
2016-11-07T11:58:18.626Z,4720
2016-11-07T11:59:18.642Z,4328
2016-11-07T12:00:04.050Z,4024
2016-11-07T12:01:03.792Z,3808
2016-11-07T12:02:03.777Z,3856
2016-11-07T12:03:03.798Z,3948
2016-11-07T12:04:03.817Z,4088
2016-11-07T12:05:03.839Z,4100
2016-11-07T12:06:03.862Z,4044
2016-11-07T12:07:03.894Z,3940
2016-11-07T12:08:03.899Z,3856
2016-11-07T12:09:03.917Z,3792
2016-11-07T12:10:03.942Z,3764
2016-11-07T12:11:03.955Z,3788
2016-11-07T12:12:03.971Z,3776
2016-11-07T12:14:18.937Z,3768
2016-11-07T12:15:04.035Z,3840
2016-11-07T12:17:04.078Z,4004
2016-11-07T12:18:04.093Z,3988
2016-11-07T12:19:04.409Z,3864
2016-11-07T12:20:04.135Z,3864
2016-11-07T12:21:04.157Z,3896
2016-11-07T12:22:04.172Z,3860
2016-11-07T12:23:04.188Z,3840
2016-11-07T12:24:04.208Z,3812
2016-11-07T12:25:04.232Z,3736
2016-11-07T12:26:04.261Z,3704
2016-11-07T12:27:04.268Z,3644
2016-11-07T12:28:04.280Z,3560
2016-11-07T12:29:04.304Z,3472
2016-11-07T12:30:19.251Z,3424
2016-11-07T12:31:04.339Z,3412
2016-11-07T12:32:04.369Z,3388
2016-11-07T12:33:04.389Z,3396
2016-11-07T12:34:04.400Z,3400
2016-11-07T12:35:04.425Z,3316
2016-11-07T12:36:04.542Z,3244
2016-11-07T12:37:19.388Z,3136
2016-11-07T12:38:04.474Z,3056
2016-11-07T12:39:04.498Z,2984
2016-11-07T12:40:19.449Z,2920
2016-11-07T12:41:04.543Z,2844
2016-11-07T12:42:04.555Z,2688
2016-11-07T12:43:04.584Z,2572
2016-11-07T12:44:04.596Z,2476
2016-11-07T12:45:04.624Z,2440
2016-11-07T12:46:19.558Z,2560
2016-11-07T12:47:04.774Z,2620
2016-11-07T12:48:04.674Z,2744
2016-11-07T12:49:04.698Z,2868
2016-11-07T12:50:04.715Z,2928
2016-11-07T12:51:04.739Z,2904
2016-11-07T12:52:04.759Z,2816
2016-11-07T12:53:04.773Z,2732
2016-11-07T12:54:04.794Z,2604
2016-11-07T12:55:04.811Z,2484
2016-11-07T12:56:04.871Z,2396
2016-11-07T12:57:04.842Z,2344
2016-11-07T12:59:04.887Z,2396
2016-11-07T13:00:19.861Z,2496
2016-11-07T13:01:19.849Z,2588
2016-11-07T13:03:04.974Z,2688
2016-11-07T13:04:04.992Z,2712
2016-11-07T13:05:05.004Z,2708
2016-11-07T13:06:05.059Z,2692
2016-11-07T13:08:05.074Z,2624
2016-11-07T13:09:05.088Z,2572
2016-11-07T13:10:05.100Z,2516
2016-11-07T13:12:05.144Z,2436
2016-11-07T13:13:05.163Z,2416
2016-11-07T13:14:05.432Z,2384
2016-11-07T13:15:05.200Z,2348
2016-11-07T13:16:05.221Z,2292
2016-11-07T13:17:05.247Z,2232
2016-11-07T13:18:05.261Z,2180
2016-11-07T13:19:05.275Z,2132
2016-11-07T13:20:05.300Z,2084
2016-11-07T13:21:05.314Z,2024
2016-11-07T13:22:05.334Z,1956
2016-11-07T13:24:05.411Z,1796
2016-11-07T13:25:05.396Z,1724
2016-11-07T13:26:05.427Z,1676
2016-11-07T13:27:05.433Z,1624
2016-11-07T13:28:05.449Z,1536
2016-11-07T13:29:05.474Z,1460
2016-11-07T13:31:05.546Z,1288
2016-11-07T13:32:20.449Z,1196
2016-11-07T13:33:20.472Z,1256
2016-11-07T13:34:05.570Z,1332
2016-11-07T13:35:05.931Z,1420
2016-11-07T13:37:05.620Z,1520
2016-11-07T13:38:05.677Z,1524
2016-11-07T13:39:05.665Z,1548
2016-11-07T13:40:05.696Z,1552
2016-11-07T13:41:05.694Z,1548
2016-11-07T13:42:05.723Z,1548
2016-11-07T13:43:20.663Z,1532
2016-11-07T13:44:05.799Z,1512
2016-11-07T13:45:06.079Z,1484
2016-11-07T13:46:20.717Z,1444
2016-11-07T13:47:20.743Z,1416
2016-11-07T13:48:05.832Z,1400
2016-11-07T13:49:20.777Z,1364
2016-11-07T13:50:05.873Z,1324
2016-11-07T13:51:05.893Z,1328
2016-11-07T13:52:05.914Z,1300
2016-11-07T13:53:05.931Z,1304
2016-11-07T13:54:21.023Z,1328
2016-11-07T13:55:05.975Z,1300
2016-11-07T13:56:05.991Z,1292
2016-11-07T13:57:06.011Z,1288
2016-11-07T13:58:06.022Z,1288
2016-11-07T13:59:06.051Z,1272
2016-11-07T14:00:06.064Z,1216
2016-11-07T14:01:06.087Z,1172
2016-11-07T14:02:06.103Z,1140
2016-11-07T14:03:06.119Z,1100
2016-11-07T14:04:06.137Z,1060
2016-11-07T14:05:21.086Z,1016
2016-11-07T14:06:06.183Z,1020
2016-11-07T14:07:06.199Z,1032
2016-11-07T14:08:06.228Z,1052
2016-11-07T14:09:06.242Z,1056
2016-11-07T14:10:06.654Z,1044
2016-11-07T14:11:06.277Z,1040
2016-11-07T14:12:06.611Z,1024
2016-11-07T14:13:06.318Z,1008
2016-11-07T14:14:06.339Z,992
2016-11-07T14:15:06.354Z,960
2016-11-07T14:16:06.387Z,920
2016-11-07T14:17:21.320Z,888
2016-11-07T14:18:06.414Z,864
2016-11-07T14:19:06.432Z,836
2016-11-07T14:20:21.369Z,812
2016-11-07T14:21:21.736Z,792
2016-11-07T14:22:06.486Z,792
2016-11-07T14:23:06.504Z,788
2016-11-07T14:24:06.526Z,776
2016-11-07T14:25:06.546Z,752
2016-11-07T14:26:06.565Z,736
2016-11-07T14:28:06.639Z,704
2016-11-07T14:29:06.615Z,684
2016-11-07T14:30:06.641Z,656
2016-11-07T14:31:06.691Z,640
2016-11-07T14:32:06.671Z,612
2016-11-07T14:33:06.695Z,604
2016-11-07T14:34:06.714Z,596
2016-11-07T14:35:06.731Z,596
2016-11-07T14:36:21.676Z,584
2016-11-07T14:37:06.771Z,580
2016-11-07T14:38:21.736Z,572
2016-11-07T14:39:06.803Z,568
2016-11-07T14:40:06.824Z,560
2016-11-07T14:41:06.998Z,548
2016-11-07T14:42:06.858Z,536
2016-11-07T14:43:06.936Z,520
2016-11-07T14:45:06.913Z,492
2016-11-07T14:46:07.334Z,476
2016-11-07T14:47:07.049Z,464
2016-11-07T14:48:06.980Z,448
2016-11-07T14:50:07.108Z,412
2016-11-07T14:52:07.647Z,380
2016-11-07T14:53:07.066Z,368
2016-11-07T14:54:07.083Z,356
2016-11-07T14:55:07.104Z,344
2016-11-07T14:57:07.800Z,324
2016-11-07T14:58:07.408Z,312
2016-11-07T14:59:10.937Z,300
2016-11-07T15:01:09.373Z,280
2016-11-07T15:02:07.545Z,264
2016-11-07T15:03:22.326Z,252